Latest Weather Observations for Bickley

IDW60901

Issued at 5:01 am WST Thursday 28 July 2016 (issued every 10 minutes, with the page automatically refreshed every 10 minutes)

About weather observations | Map of Perth area stations | Latest observations for Perth area | Other Formats
Station Details ID: 009240 Name: BICKLEY Lat: -32.01 Lon: 116.14 Height: 384.0 m
Data from the previous 72 hours. | See also: Recent months at Bickley
Date/Time
WST
Temp
°C
App
Temp
°C
Dew
Point
°C
Rel
Hum
%
Delta-T
°C
Wind Press
QNH
hPa
Press
MSL
hPa
Rain since
9am
mm
Dir  Spd
km/h
Gust
km/h
Spd
kts
Gust
kts
28/05:00am 10.2 7.0 6.9 80 1.6 NNE 13 17 7 9 - - 0.0
28/04:30am 10.3 7.2 7.4 82 1.4 N 13 15 7 8 - - 0.0
28/04:00am 10.4 8.3 8.2 86 1.1 N 9 13 5 7 - - 0.0
28/03:30am 9.6 7.4 7.9 89 0.8 N 9 11 5 6 - - 0.0
28/03:00am 9.5 8.6 7.6 88 0.9 NNE 2 6 1 3 - - 0.0
28/02:30am 9.5 6.9 7.8 89 0.8 NNE 11 13 6 7 - - 0.0
28/02:00am 9.2 6.6 7.6 90 0.8 NE 11 15 6 8 - - 0.0
28/01:30am 9.0 6.3 7.3 89 0.8 ENE 11 13 6 7 - - 0.0
28/01:00am 9.5 7.3 7.8 89 0.8 ENE 9 13 5 7 - - 0.0
28/12:30am 9.1 6.4 7.2 88 0.9 NE 11 17 6 9 - - 0.0
28/12:00am 8.8 5.6 6.8 87 1.0 ENE 13 15 7 8 - - 0.0
 
Date/Time
WST
Temp
°C
App
Temp
°C
Dew
Point
°C
Rel
Hum
%
Delta-T
°C
Wind Press
QNH
hPa
Press
MSL
hPa
Rain since
9am
mm
Dir  Spd
km/h
Gust
km/h
Spd
kts
Gust
kts
27/11:30pm 9.7 6.7 7.6 87 1.0 ENE 13 22 7 12 - - 0.0
27/11:00pm 9.9 6.9 7.7 86 1.1 ENE 13 15 7 8 - - 0.0
27/10:30pm 9.9 7.6 7.5 85 1.2 NE 9 13 5 7 - - 0.0
27/10:00pm 10.5 8.4 8.1 85 1.2 NE 9 15 5 8 - - 0.0
27/09:30pm 10.4 7.9 8.0 85 1.2 ENE 11 17 6 9 - - 0.0
27/09:00pm 10.6 8.4 8.0 84 1.3 NE 9 13 5 7 - - 0.0
27/08:30pm 10.5 8.3 7.9 84 1.3 NE 9 13 5 7 - - 0.0
27/08:00pm 10.5 7.9 7.7 83 1.4 ENE 11 13 6 7 - - 0.0
27/07:30pm 10.7 7.7 7.8 82 1.4 ENE 13 15 7 8 - - 0.0
27/07:00pm 11.1 8.5 7.8 80 1.6 ENE 11 15 6 8 - - 0.0
27/06:30pm 11.6 8.6 7.9 78 1.8 NE 13 20 7 11 - - 0.0
27/06:00pm 11.7 9.0 7.2 74 2.2 NE 11 15 6 8 - - 0.0
27/05:30pm 12.0 8.9 7.1 72 2.4 NE 13 17 7 9 - - 0.0
27/05:00pm 12.8 10.5 7.5 70 2.6 NE 9 13 5 7 - - 0.0
27/04:30pm 13.5 11.3 7.7 68 2.9 NE 9 17 5 9 - - 0.0
27/04:00pm 14.3 12.0 7.4 63 3.5 NNE 9 15 5 8 - - 0.0
27/03:30pm 14.8 11.2 6.9 59 3.9 NNE 15 26 8 14 - - 0.0
27/03:00pm 15.5 11.4 6.2 54 4.6 NE 17 28 9 15 - - 0.0
27/02:30pm 15.7 12.5 7.0 56 4.4 NE 13 24 7 13 - - 0.0
27/02:00pm 15.6 11.9 6.3 54 4.6 NE 15 30 8 16 - - 0.0
27/01:30pm 15.5 12.0 7.3 58 4.1 NNE 15 26 8 14 - - 0.0
27/01:00pm 15.4 12.9 8.2 62 3.7 NNE 11 24 6 13 - - 0.0
27/12:30pm 14.8 10.9 8.5 66 3.2 NE 19 30 10 16 - - 0.0
27/12:00pm 13.6 9.9 9.6 77 2.1 NE 19 26 10 14 - - 0.0
27/11:30am 12.7 9.1 10.6 87 1.1 ENE 20 32 11 17 - - 0.0
27/11:00am 11.5 8.4 10.2 92 0.7 ENE 17 26 9 14 - - 0.0
27/10:30am 10.4 6.7 9.5 94 0.5 ENE 19 30 10 16 - - 0.0
27/10:00am 9.1 5.5 8.5 96 0.3 ENE 17 30 9 16 - - 0.0
27/09:30am 7.8 3.9 7.2 96 0.3 ENE 17 26 9 14 - - 0.0
27/09:00am 7.4 3.1 6.8 96 0.3 ENE 19 28 10 15 - - 0.2
27/08:30am 7.1 3.1 6.5 96 0.3 ENE 17 26 9 14 - - 0.2
27/08:00am 6.8 2.1 6.2 96 0.3 ENE 20 28 11 15 - - 0.2
27/07:30am 6.4 1.6 5.8 96 0.3 E 20 26 11 14 - - 0.0
27/07:00am 6.4 1.6 5.7 95 0.3 ENE 20 26 11 14 - - 0.0
27/06:30am 6.6 2.1 5.9 95 0.3 E 19 24 10 13 - - 0.0
27/06:00am 6.5 2.3 5.8 95 0.3 E 17 20 9 11 - - 0.0
27/05:30am 6.6 2.8 5.9 95 0.3 E 15 20 8 11 - - 0.0
27/05:00am 6.7 2.5 5.8 94 0.4 E 17 22 9 12 - - 0.0
27/04:30am 6.9 2.8 6.0 94 0.4 E 17 22 9 12 - - 0.0
27/04:00am 6.7 2.9 5.7 93 0.5 E 15 20 8 11 - - 0.0
27/03:30am 6.9 3.5 5.8 93 0.5 E 13 17 7 9 - - 0.0
27/03:00am 6.5 3.0 5.3 92 0.5 E 13 15 7 8 - - 0.0
27/02:30am 6.8 3.7 5.6 92 0.5 E 11 15 6 8 - - 0.0
27/02:00am 6.9 3.5 5.7 92 0.5 E 13 15 7 8 - - 0.0
27/01:30am 7.2 4.2 5.8 91 0.6 ENE 11 15 6 8 - - 0.0
27/01:00am 7.1 3.7 5.7 91 0.6 ENE 13 13 7 7 - - 0.0
27/12:30am 7.6 4.6 6.1 90 0.7 ENE 11 15 6 8 - - 0.0
27/12:00am 7.5 4.5 6.0 90 0.7 ENE 11 15 6 8 - - 0.0
 
Date/Time
WST
Temp
°C
App
Temp
°C
Dew
Point
°C
Rel
Hum
%
Delta-T
°C
Wind Press
QNH
hPa
Press
MSL
hPa
Rain since
9am
mm
Dir  Spd
km/h
Gust
km/h
Spd
kts
Gust
kts
26/11:30pm 7.7 4.3 6.0 89 0.8 ENE 13 15 7 8 - - 0.0
26/11:00pm 8.4 5.1 6.5 88 0.9 E 13 20 7 11 - - 0.0
26/10:30pm 8.8 6.0 6.8 87 1.0 ESE 11 15 6 8 - - 0.0
26/10:00pm 9.3 6.9 7.1 86 1.1 ESE 9 13 5 7 - - 0.0
26/09:30pm 9.6 7.3 7.4 86 1.1 SSE 9 15 5 8 - - 0.0
26/09:00pm 9.4 6.3 7.2 86 1.1 SSE 13 15 7 8 - - 0.0
26/08:30pm 9.4 6.6 7.0 85 1.2 SSE 11 13 6 7 - - 0.0
26/08:00pm 9.6 7.2 7.0 84 1.3 SSE 9 13 5 7 - - 0.0
26/07:30pm 10.1 7.0 7.2 82 1.4 S 13 15 7 8 - - 0.0
26/07:00pm 10.6 7.5 7.3 80 1.6 SSW 13 17 7 9 - - 0.0
26/06:30pm 11.1 8.4 7.2 77 1.9 SSW 11 15 6 8 - - 0.0
26/06:00pm 11.5 8.7 7.0 74 2.2 SW 11 13 6 7 - - 0.0
26/05:30pm 12.4 10.1 7.3 71 2.5 SW 9 13 5 7 - - 0.0
26/05:00pm 13.9 11.7 7.9 67 3.0 WSW 9 13 5 7 - - 0.0
26/04:30pm 14.2 12.1 8.2 67 3.1 WSW 9 13 5 7 - - 0.0
26/04:00pm 15.2 13.4 8.0 62 3.7 SW 7 11 4 6 - - 0.0
26/03:30pm 15.3 13.5 7.8 61 3.8 W 7 15 4 8 - - 0.0
26/03:00pm 15.0 12.8 8.0 63 3.6 WSW 9 13 5 7 - - 0.0
26/02:30pm 15.9 13.8 8.2 60 4.0 SW 9 13 5 7 - - 0.0
26/02:00pm 14.9 13.2 7.5 61 3.7 SW 6 9 3 5 - - 0.0
26/01:30pm 14.3 12.1 7.8 65 3.3 SSW 9 15 5 8 - - 0.0
26/01:00pm 14.6 12.8 8.1 65 3.3 SSW 7 15 4 8 - - 0.0
26/12:30pm 14.2 11.7 8.2 67 3.1 SSW 11 17 6 9 - - 0.0
26/12:00pm 14.8 12.4 8.5 66 3.2 SSW 11 24 6 13 - - 0.0
26/11:30am 13.7 11.2 8.1 69 2.8 SSW 11 17 6 9 - - 0.0
26/11:00am 13.5 11.3 9.2 75 2.2 SSW 11 20 6 11 - - 0.0
26/10:30am 12.7 11.1 10.1 84 1.4 SSW 9 15 5 8 - - 0.0
26/10:00am 12.6 11.6 11.0 90 0.9 S 7 13 4 7 - - 0.0
26/09:30am 11.6 10.5 10.5 93 0.6 SSE 7 11 4 6 - - 0.0
26/09:00am 10.6 9.5 9.8 95 0.4 SE 6 9 3 5 - - 0.2
26/08:30am 9.9 8.4 9.1 95 0.4 SE 7 9 4 5 - - 0.2
26/08:00am 9.4 7.9 8.6 95 0.4 SSE 6 7 3 4 - - 0.2
26/07:30am 8.3 6.6 7.4 94 0.4 S 6 9 3 5 - - 0.2
26/07:00am 7.7 5.6 6.6 93 0.5 SW 7 9 4 5 - - 0.2
26/06:30am 8.2 6.2 7.1 93 0.5 SSW 7 7 4 4 - - 0.2
26/06:00am 7.8 5.7 6.7 93 0.5 SSW 7 9 4 5 - - 0.0
26/05:30am 7.9 5.4 6.7 92 0.6 S 9 11 5 6 - - 0.0
26/05:00am 7.5 4.9 6.3 92 0.6 SSW 9 11 5 6 - - 0.0
26/04:30am 7.1 4.8 5.7 91 0.6 SSW 7 7 4 4 - - 0.0
26/04:00am 7.5 5.3 6.1 91 0.6 S 7 11 4 6 - - 0.0
26/03:30am 7.9 5.4 6.4 90 0.7 SSW 9 11 5 6 - - 0.0
26/03:00am 8.6 6.6 7.1 90 0.7 SW 7 13 4 7 - - 0.0
26/02:30am 8.2 5.8 6.8 91 0.7 SSW 9 11 5 6 - - 0.0
26/02:00am 7.5 5.3 6.0 90 0.7 S 7 9 4 5 - - 0.0
26/01:30am 7.2 4.9 5.7 90 0.7 SSW 7 11 4 6 - - 0.0
26/01:00am 7.1 4.7 5.4 89 0.8 SSW 7 9 4 5 - - 0.0
26/12:30am 7.1 4.7 5.4 89 0.8 SW 7 7 4 4 - - 0.0
26/12:00am 6.9 5.0 5.1 88 0.8 S 4 6 2 3 - - 0.0
 
Date/Time
WST
Temp
°C
App
Temp
°C
Dew
Point
°C
Rel
Hum
%
Delta-T
°C
Wind Press
QNH
hPa
Press
MSL
hPa
Rain since
9am
mm
Dir  Spd
km/h
Gust
km/h
Spd
kts
Gust
kts
25/11:30pm 7.5 5.2 5.6 88 0.9 S 7 9 4 5 - - 0.0
25/11:00pm 7.0 4.5 5.0 87 0.9 SSW 7 9 4 5 - - 0.0
25/10:30pm 7.1 4.7 5.1 87 0.9 SW 7 11 4 6 - - 0.0
25/10:00pm 6.8 5.6 4.6 86 1.0 CALM 0 4 0 2 - - 0.0
25/09:30pm 7.5 5.3 5.3 86 1.0 NE 6 7 3 4 - - 0.0
25/09:00pm 7.5 4.7 5.1 85 1.1 NNE 9 11 5 6 - - 0.0
25/08:30pm 7.3 4.4 4.8 84 1.1 ENE 9 11 5 6 - - 0.0
25/08:00pm 8.1 5.0 5.6 84 1.2 S 11 13 6 7 - - 0.0
25/07:30pm 8.4 5.7 5.5 82 1.3 S 9 13 5 7 - - 0.0
25/07:00pm 8.5 5.7 5.1 79 1.6 S 9 11 5 6 - - 0.0
25/06:30pm 9.3 6.5 5.3 76 1.8 SSW 9 13 5 7 - - 0.0
25/06:00pm 9.6 7.1 5.0 73 2.1 SW 7 11 4 6 - - 0.0
25/05:30pm 10.8 8.4 5.3 69 2.6 SSW 7 9 4 5 - - 0.0
25/05:00pm 12.5 10.2 5.7 63 3.3 SSW 7 9 4 5 - - 0.0
25/04:30pm 13.6 11.8 5.5 58 3.9 S 4 7 2 4 - - 0.0
25/04:00pm 13.5 11.4 5.9 60 3.7 SE 6 11 3 6 - - 0.0
25/03:30pm 13.8 11.6 6.2 60 3.7 E 7 13 4 7 - - 0.0
25/03:00pm 12.9 10.8 5.8 62 3.4 SW 6 11 3 6 - - 0.0
25/02:30pm 13.1 10.1 6.0 62 3.4 SE 11 15 6 8 - - 0.0
25/02:00pm 12.3 10.0 5.7 64 3.2 NE 7 13 4 7 - - 0.0
25/01:30pm 11.7 8.9 5.1 64 3.1 SSE 9 15 5 8 - - 0.0
25/01:00pm 11.3 8.9 5.2 66 2.9 S 7 11 4 6 - - 0.0
25/12:30pm 10.9 8.1 5.2 68 2.7 SE 9 17 5 9 - - 0.0
25/12:00pm 11.4 8.3 5.7 68 2.7 SE 11 17 6 9 - - 0.0
25/11:30am 11.1 7.6 5.4 68 2.7 ESE 13 20 7 11 - - 0.0
25/11:00am 11.0 7.9 5.7 70 2.5 SE 11 17 6 9 - - 0.0
25/10:30am 11.3 8.8 6.4 72 2.4 E 9 15 5 8 - - 0.0
25/10:00am 10.8 8.5 7.3 79 1.7 ESE 9 15 5 8 - - 0.0
25/09:30am 9.8 7.6 7.9 88 0.9 E 9 17 5 9 - - 0.0
25/09:00am 8.2 5.8 7.0 92 0.6 E 9 15 5 8 - - 0.0
25/08:30am 6.6 3.5 5.6 93 0.5 E 11 15 6 8 - - 0.0
25/08:00am 6.0 2.8 5.0 93 0.4 ESE 11 15 6 8 - - 0.0
25/07:30am 5.5 1.8 4.3 92 0.5 E 13 15 7 8 - - 0.0
25/07:00am 5.8 2.1 4.4 91 0.6 SE 13 17 7 9 - - 0.0
25/06:30am 6.5 3.7 5.1 91 0.6 SE 9 13 5 7 - - 0.0
25/06:00am 6.3 3.0 4.6 89 0.8 SE 11 17 6 9 - - 0.0
25/05:30am 6.9 3.3 4.9 87 0.9 SSE 13 22 7 12 - - 0.0

Latest Capital City Observations: Canberra | Sydney | Melbourne | Brisbane | Adelaide | Perth | Hobart | Darwin

Other Formats:

Comma delimited format used in spreadsheet applications
http://www.bom.gov.au/fwo/IDW60901/IDW60901.95610.axf

JavaScript Object Notation format (JSON) in row-major order
http://www.bom.gov.au/fwo/IDW60901/IDW60901.95610.json